createdAt,value
2018-12-12T00:01:08.334Z,100659.63
2018-12-12T00:03:36.874Z,100664.10
2018-12-12T00:06:05.800Z,100656.83
2018-12-12T00:08:35.335Z,100655.19
2018-12-12T00:11:04.888Z,100653.55
2018-12-12T00:13:33.822Z,100659.27
2018-12-12T00:16:02.306Z,100655.48
2018-12-12T00:18:30.793Z,100659.43
2018-12-12T00:20:59.331Z,100662.98
2018-12-12T00:23:28.065Z,100668.23
2018-12-12T00:25:56.577Z,100670.85
2018-12-12T00:28:25.980Z,100674.00
2018-12-12T00:30:54.525Z,100667.11
2018-12-12T00:33:23.082Z,100661.97
2018-12-12T00:35:51.595Z,100660.27
2018-12-12T00:38:20.619Z,100663.37
2018-12-12T00:40:49.221Z,100653.89
2018-12-12T00:43:18.368Z,100653.48
2018-12-12T00:45:48.225Z,100653.13
2018-12-12T00:48:16.778Z,100655.42
2018-12-12T00:50:45.391Z,100649.83
2018-12-12T00:53:13.868Z,100655.54
2018-12-12T00:55:43.442Z,100649.88
2018-12-12T00:58:12.603Z,100652.58
2018-12-12T01:00:41.569Z,100648.19
2018-12-12T01:03:24.363Z,100652.19
2018-12-12T01:05:53.134Z,100652.23
2018-12-12T01:08:21.652Z,100646.17
2018-12-12T01:10:55.191Z,100655.39
2018-12-12T01:13:25.530Z,100655.84
2018-12-12T01:15:53.967Z,100659.34
2018-12-12T01:18:23.281Z,100667.61
2018-12-12T01:20:51.800Z,100670.66
2018-12-12T01:23:21.138Z,100672.41
2018-12-12T01:25:49.616Z,100674.61
2018-12-12T01:28:18.168Z,100682.42
2018-12-12T01:30:48.188Z,100675.52
2018-12-12T01:35:50.147Z,100671.11
2018-12-12T01:38:18.732Z,100666.75
2018-12-12T01:40:47.677Z,100666.75
2018-12-12T01:43:16.761Z,100666.30
2018-12-12T01:45:45.852Z,100663.25
2018-12-12T01:48:14.352Z,100666.30
2018-12-12T01:50:43.324Z,100670.66
2018-12-12T01:53:11.902Z,100679.77
2018-12-12T01:55:40.428Z,100676.32
2018-12-12T01:58:09.982Z,100672.02
2018-12-12T02:00:38.997Z,100676.38
2018-12-12T02:03:07.565Z,100678.56
2018-12-12T02:05:36.354Z,100671.66
2018-12-12T02:08:05.187Z,100673.86
2018-12-12T02:10:33.951Z,100670.77
2018-12-12T02:13:13.929Z,100678.62
2018-12-12T02:15:42.477Z,100679.91
2018-12-12T02:18:11.543Z,100678.63
2018-12-12T02:20:40.318Z,100684.28
2018-12-12T02:23:09.336Z,100689.58
2018-12-12T02:25:37.788Z,100692.63
2018-12-12T02:28:06.368Z,100687.43
2018-12-12T02:30:34.923Z,100685.69
2018-12-12T02:33:03.897Z,100687.48
2018-12-12T02:35:32.393Z,100687.94
2018-12-12T02:38:01.369Z,100686.64
2018-12-12T02:40:31.774Z,100692.30
2018-12-12T02:43:00.263Z,100688.05
2018-12-12T02:45:28.906Z,100690.64
2018-12-12T02:47:57.695Z,100691.14
2018-12-12T02:50:26.182Z,100687.19
2018-12-12T02:52:54.695Z,100680.67
2018-12-12T02:55:23.200Z,100685.88
2018-12-12T02:57:54.229Z,100688.09
2018-12-12T03:00:22.734Z,100687.67
2018-12-12T03:02:51.257Z,100691.59
2018-12-12T03:05:19.763Z,100692.94
2018-12-12T03:07:48.255Z,100692.50
2018-12-12T03:10:16.682Z,100673.07
2018-12-12T03:12:45.125Z,100703.00
2018-12-12T03:15:13.557Z,100701.25
2018-12-12T03:17:42.023Z,100706.45
2018-12-12T03:20:10.554Z,100715.13
2018-12-12T03:22:39.033Z,100716.41
2018-12-12T03:25:07.509Z,100713.33
2018-12-12T03:27:35.951Z,100723.38
2018-12-12T03:30:04.477Z,100717.27
2018-12-12T03:32:32.957Z,100719.94
2018-12-12T03:35:01.407Z,100716.48
2018-12-12T03:37:29.854Z,100709.61
2018-12-12T03:39:58.806Z,100709.61
2018-12-12T03:42:28.321Z,100702.27
2018-12-12T03:44:56.761Z,100698.34
2018-12-12T03:47:25.280Z,100696.14
2018-12-12T03:49:53.698Z,100700.41
2018-12-12T03:52:22.162Z,100700.80
2018-12-12T03:54:50.599Z,100705.52
2018-12-12T03:57:19.070Z,100704.11
2018-12-12T03:59:47.521Z,100700.50
2018-12-12T04:02:16.015Z,100702.14
2018-12-12T04:04:44.488Z,100699.80
2018-12-12T04:07:12.934Z,100703.12
2018-12-12T04:09:41.339Z,100705.13
2018-12-12T04:12:09.891Z,100705.80
2018-12-12T04:14:38.429Z,100703.87
2018-12-12T04:17:06.943Z,100695.89
2018-12-12T04:19:35.572Z,100699.17
2018-12-12T04:22:04.321Z,100698.61
2018-12-12T04:24:33.286Z,100698.93
2018-12-12T04:27:01.816Z,100701.92
2018-12-12T04:29:30.347Z,100701.82
2018-12-12T04:32:05.048Z,100703.11
2018-12-12T04:34:33.502Z,100703.45
2018-12-12T04:37:02.020Z,100699.55
2018-12-12T04:39:30.504Z,100698.25
2018-12-12T04:41:58.922Z,100698.20
2018-12-12T04:44:27.358Z,100697.73
2018-12-12T04:46:55.996Z,100696.84
2018-12-12T04:49:24.482Z,100692.93
2018-12-12T04:51:52.921Z,100704.58
2018-12-12T04:54:21.357Z,100703.66
2018-12-12T04:56:49.872Z,100712.30
2018-12-12T04:59:18.684Z,100705.25
2018-12-12T05:01:47.207Z,100706.08
2018-12-12T05:04:15.675Z,100708.16
2018-12-12T05:06:44.141Z,100710.19
2018-12-12T05:09:12.645Z,100712.20
2018-12-12T05:11:41.195Z,100717.30
2018-12-12T05:14:09.692Z,100712.48
2018-12-12T05:16:38.200Z,100720.33
2018-12-12T05:19:06.644Z,100719.95
2018-12-12T05:21:35.200Z,100720.41
2018-12-12T05:24:03.712Z,100713.86
2018-12-12T05:26:32.909Z,100720.35
2018-12-12T05:29:01.411Z,100716.44
2018-12-12T05:31:29.966Z,100716.44
2018-12-12T05:33:58.424Z,100718.12
2018-12-12T05:36:26.899Z,100720.20
2018-12-12T05:38:55.339Z,100723.92
2018-12-12T05:41:23.883Z,100728.13
2018-12-12T05:43:57.480Z,100728.41
2018-12-12T05:46:22.866Z,100724.78
2018-12-12T05:48:51.330Z,100732.88
2018-12-12T05:51:19.817Z,100725.36
2018-12-12T05:53:48.295Z,100727.02
2018-12-12T05:56:29.112Z,100722.04
2018-12-12T05:58:57.526Z,100720.53
2018-12-12T06:01:26.001Z,100723.91
2018-12-12T06:03:54.566Z,100720.77
2018-12-12T06:06:23.097Z,100723.69
2018-12-12T06:08:51.596Z,100724.53
2018-12-12T06:11:20.042Z,100727.44
2018-12-12T06:13:48.526Z,100727.91
2018-12-12T06:16:16.980Z,100733.94
2018-12-12T06:18:45.456Z,100739.58
2018-12-12T06:21:13.883Z,100735.37
2018-12-12T06:23:42.350Z,100739.34
2018-12-12T06:26:10.779Z,100740.38
2018-12-12T06:28:39.318Z,100745.27
2018-12-12T06:31:07.789Z,100746.84
2018-12-12T06:33:36.307Z,100753.58
2018-12-12T06:36:04.744Z,100749.43
2018-12-12T06:38:33.143Z,100750.48
2018-12-12T06:41:01.521Z,100754.58
2018-12-12T06:43:30.005Z,100754.31
2018-12-12T06:45:58.482Z,100751.41
2018-12-12T06:48:26.996Z,100754.11
2018-12-12T06:50:55.445Z,100753.28
2018-12-12T06:53:23.961Z,100762.89
2018-12-12T06:55:52.414Z,100756.39
2018-12-12T06:58:20.875Z,100752.60
2018-12-12T07:00:49.302Z,100758.73
2018-12-12T07:03:17.724Z,100758.38
2018-12-12T07:05:46.190Z,100761.05
2018-12-12T07:08:14.616Z,100760.28
2018-12-12T07:10:43.051Z,100763.45
2018-12-12T07:13:11.527Z,100764.02
2018-12-12T07:15:39.955Z,100761.09
2018-12-12T07:18:08.444Z,100766.41
2018-12-12T07:20:36.862Z,100761.73
2018-12-12T07:23:05.269Z,100768.36
2018-12-12T07:25:33.787Z,100767.52
2018-12-12T07:28:02.290Z,100765.92
2018-12-12T07:30:30.819Z,100765.99
2018-12-12T07:32:59.246Z,100770.47
2018-12-12T07:35:27.699Z,100766.62
2018-12-12T07:37:56.277Z,100764.52
2018-12-12T07:40:24.776Z,100766.23
2018-12-12T07:42:53.169Z,100767.14
2018-12-12T07:45:21.651Z,100780.28
2018-12-12T07:47:50.162Z,100778.15
2018-12-12T07:50:18.669Z,100784.70
2018-12-12T07:52:47.219Z,100787.75
2018-12-12T07:55:15.802Z,100784.41
2018-12-12T07:57:44.223Z,100788.38
2018-12-12T08:00:13.148Z,100793.23
2018-12-12T08:02:41.635Z,100790.30
2018-12-12T08:05:10.104Z,100791.27
2018-12-12T08:07:38.556Z,100793.97
2018-12-12T08:10:07.086Z,100797.02
2018-12-12T08:12:35.768Z,100799.64
2018-12-12T08:15:04.234Z,100797.14
2018-12-12T08:17:32.764Z,100799.84
2018-12-12T08:20:01.396Z,100800.36
2018-12-12T08:22:29.892Z,100795.22
2018-12-12T08:24:58.449Z,100797.02
2018-12-12T08:27:26.977Z,100810.15
2018-12-12T08:29:55.476Z,100804.53
2018-12-12T08:32:24.258Z,100803.30
2018-12-12T08:34:52.795Z,100809.45
2018-12-12T08:37:21.291Z,100808.66
2018-12-12T08:39:49.823Z,100813.03
2018-12-12T08:42:18.287Z,100813.53
2018-12-12T08:44:46.754Z,100812.31
2018-12-12T08:47:15.220Z,100814.17
2018-12-12T08:49:43.695Z,100815.12
2018-12-12T08:52:12.162Z,100809.09
2018-12-12T08:54:40.814Z,100822.95
2018-12-12T08:57:09.537Z,100813.83
2018-12-12T08:59:38.074Z,100826.80
2018-12-12T09:02:06.666Z,100822.05
2018-12-12T09:04:35.177Z,100822.09
2018-12-12T09:07:03.721Z,100820.80
2018-12-12T09:09:32.221Z,100813.93
2018-12-12T09:12:00.680Z,100822.70
2018-12-12T09:14:29.201Z,100821.09
2018-12-12T09:16:57.751Z,100824.22
2018-12-12T09:19:26.215Z,100824.31
2018-12-12T09:21:54.679Z,100817.45
2018-12-12T09:24:23.227Z,100826.17
2018-12-12T09:26:52.364Z,100822.75
2018-12-12T09:29:20.860Z,100820.64
2018-12-12T09:31:49.331Z,100824.66
2018-12-12T09:34:17.840Z,100830.78
2018-12-12T09:36:46.314Z,100830.88
2018-12-12T09:39:14.860Z,100829.66
2018-12-12T09:41:43.392Z,100839.73
2018-12-12T09:44:11.906Z,100850.16
2018-12-12T09:46:40.378Z,100831.41
2018-12-12T09:49:09.544Z,100829.71
2018-12-12T09:51:38.025Z,100832.46
2018-12-12T09:54:06.549Z,100834.75
2018-12-12T09:56:35.012Z,100832.59
2018-12-12T09:59:03.508Z,100830.94
2018-12-12T10:01:32.027Z,100830.17
2018-12-12T10:04:00.500Z,100830.63
2018-12-12T10:06:28.975Z,100825.84
2018-12-12T10:08:57.637Z,100827.60
2018-12-12T10:11:26.274Z,100827.60
2018-12-12T10:13:54.711Z,100832.47
2018-12-12T10:16:23.308Z,100831.11
2018-12-12T10:18:51.715Z,100830.30
2018-12-12T10:21:20.230Z,100830.02
2018-12-12T10:23:49.238Z,100830.03
2018-12-12T10:57:59.455Z,100800.35
2018-12-12T11:00:27.931Z,100800.16
2018-12-12T11:03:01.516Z,100800.23
2018-12-12T11:05:32.409Z,100795.82
2018-12-12T11:08:00.855Z,100796.53
2018-12-12T11:10:29.499Z,100786.05
2018-12-12T11:13:00.753Z,100777.73
2018-12-12T11:15:29.419Z,100774.71
2018-12-12T11:17:57.985Z,100772.55
2018-12-12T11:20:26.583Z,100767.70
2018-12-12T11:22:55.112Z,100769.63
2018-12-12T11:25:23.631Z,100767.94
2018-12-12T11:27:52.161Z,100763.66
2018-12-12T11:30:20.716Z,100758.32
2018-12-12T11:32:49.264Z,100756.47
2018-12-12T11:35:17.859Z,100753.20
2018-12-12T11:37:46.445Z,100753.61
2018-12-12T11:40:14.975Z,100753.61
2018-12-12T11:42:43.548Z,100753.02
2018-12-12T11:45:12.191Z,100701.48
2018-12-12T11:47:40.904Z,100751.42
2018-12-12T11:50:09.378Z,100752.61
2018-12-12T11:52:38.008Z,100757.87
2018-12-12T11:55:18.776Z,100749.90
2018-12-12T11:57:47.523Z,100743.92
2018-12-12T12:00:16.047Z,100736.21
2018-12-12T12:02:44.565Z,100649.97
2018-12-12T12:05:13.061Z,100730.95
2018-12-12T12:07:41.625Z,100729.22
2018-12-12T12:10:11.092Z,100732.98
2018-12-12T12:12:39.580Z,100732.92
2018-12-12T12:15:08.588Z,100729.95
2018-12-12T12:17:37.095Z,100731.20
2018-12-12T12:20:05.783Z,100724.45
2018-12-12T12:22:34.304Z,100722.38
2018-12-12T12:25:02.747Z,100621.28
2018-12-12T12:27:31.256Z,100720.99
2018-12-12T12:30:00.816Z,100729.64
2018-12-12T12:32:29.321Z,100726.16
2018-12-12T12:34:57.873Z,100723.78
2018-12-12T12:37:26.403Z,100723.94
2018-12-12T12:39:54.870Z,100726.03
2018-12-12T12:42:23.379Z,100721.58
2018-12-12T12:44:51.869Z,100727.30
2018-12-12T12:47:20.403Z,100724.23
2018-12-12T12:49:48.979Z,100722.14
2018-12-12T12:52:17.504Z,100714.76
2018-12-12T12:54:46.156Z,100715.70
2018-12-12T12:57:14.698Z,100709.98
2018-12-12T12:59:43.329Z,100703.38
2018-12-12T13:02:11.995Z,100703.87
2018-12-12T13:04:40.516Z,100706.95
2018-12-12T13:07:09.107Z,100704.31
2018-12-12T13:09:38.877Z,100695.98
2018-12-12T13:12:07.669Z,100700.30
2018-12-12T13:14:36.534Z,100702.35
2018-12-12T13:17:05.136Z,100704.86
2018-12-12T13:19:33.599Z,100702.95
2018-12-12T13:22:02.052Z,100702.36
2018-12-12T13:24:30.515Z,100694.34
2018-12-12T13:26:58.960Z,100691.22
2018-12-12T13:29:27.435Z,100698.54
2018-12-12T13:31:56.210Z,100692.75
2018-12-12T13:34:24.971Z,100689.16
2018-12-12T13:36:53.428Z,100687.76
2018-12-12T13:39:21.978Z,100685.47
2018-12-12T13:41:50.449Z,100687.94
2018-12-12T13:44:18.952Z,100692.22
2018-12-12T13:46:47.420Z,100687.30
2018-12-12T13:49:16.435Z,100682.36
2018-12-12T13:51:44.901Z,100683.97
2018-12-12T13:54:13.404Z,100676.45
2018-12-12T13:56:41.861Z,100678.98
2018-12-12T13:59:10.350Z,100678.50
2018-12-12T14:01:38.811Z,100676.17
2018-12-12T14:04:07.284Z,100670.38
2018-12-12T14:06:35.769Z,100667.19
2018-12-12T14:09:05.600Z,100667.87
2018-12-12T14:11:34.154Z,100668.63
2018-12-12T14:14:02.668Z,100665.98
2018-12-12T14:16:31.227Z,100665.88
2018-12-12T14:18:59.804Z,100663.16
2018-12-12T14:21:28.297Z,100663.53
2018-12-12T14:23:56.900Z,100667.37
2018-12-12T14:26:25.405Z,100666.44
2018-12-12T14:28:53.946Z,100696.68
2018-12-12T14:31:23.763Z,100670.48
2018-12-12T14:33:52.428Z,100661.77
2018-12-12T14:36:20.933Z,100657.33
2018-12-12T14:38:49.678Z,100661.25
2018-12-12T14:41:18.634Z,100665.89
2018-12-12T14:43:47.187Z,100668.45
2018-12-12T14:46:15.760Z,100669.50
2018-12-12T14:48:44.296Z,100669.42
2018-12-12T14:51:12.774Z,100668.48
2018-12-12T14:53:41.357Z,100665.73
2018-12-12T14:56:09.981Z,100663.00
2018-12-12T14:58:38.603Z,100661.61
2018-12-12T15:01:07.126Z,100663.66
2018-12-12T15:03:35.633Z,100660.12
2018-12-12T15:06:04.090Z,100665.63
2018-12-12T15:08:32.584Z,100659.34
2018-12-12T15:11:01.076Z,100657.91
2018-12-12T15:13:29.612Z,100656.09
2018-12-12T15:15:58.110Z,100654.70
2018-12-12T15:18:26.662Z,100659.80
2018-12-12T15:20:55.174Z,100658.76
2018-12-12T15:23:23.763Z,100661.70
2018-12-12T15:25:52.259Z,100666.20
2018-12-12T15:28:20.741Z,100674.50
2018-12-12T15:30:49.236Z,100674.69
2018-12-12T15:33:17.833Z,100667.59
2018-12-12T15:35:46.324Z,100669.19
2018-12-12T15:38:14.871Z,100675.59
2018-12-12T15:40:43.692Z,100676.38
2018-12-12T15:43:13.169Z,100677.63
2018-12-12T15:45:41.637Z,100683.11
2018-12-12T15:48:10.137Z,100685.59
2018-12-12T15:50:38.677Z,100684.63
2018-12-12T15:53:07.186Z,100688.94
2018-12-12T15:55:35.718Z,100688.37
2018-12-12T15:58:04.268Z,100696.89
2018-12-12T16:00:33.051Z,100689.03
2018-12-12T16:03:01.875Z,100694.62
2018-12-12T16:05:31.844Z,100695.41
2018-12-12T16:08:00.448Z,100696.02
2018-12-12T16:10:29.087Z,100693.30
2018-12-12T16:12:57.696Z,100692.86
2018-12-12T16:15:26.222Z,100688.84
2018-12-12T16:17:54.792Z,100691.42
2018-12-12T16:20:23.418Z,100693.00
2018-12-12T16:22:52.010Z,100685.54
2018-12-12T16:25:20.604Z,100690.66
2018-12-12T16:27:50.011Z,100688.02
2018-12-12T16:30:18.997Z,100685.73
2018-12-12T16:32:47.757Z,100682.95
2018-12-12T16:35:16.405Z,100684.66
2018-12-12T16:37:44.991Z,100682.88
2018-12-12T16:40:13.561Z,100681.53
2018-12-12T16:42:42.098Z,100682.77
2018-12-12T16:45:10.633Z,100681.40
2018-12-12T16:47:39.161Z,100683.48
2018-12-12T16:50:08.115Z,100687.38
2018-12-12T16:52:36.722Z,100691.58
2018-12-12T16:55:05.234Z,100698.02
2018-12-12T16:57:33.722Z,100720.03
2018-12-12T17:00:02.306Z,100705.30
2018-12-12T17:02:30.788Z,100703.08
2018-12-12T17:05:02.305Z,100700.43
2018-12-12T17:07:30.078Z,100704.25
2018-12-12T17:09:58.688Z,100705.47
2018-12-12T17:12:27.219Z,100708.91
2018-12-12T17:14:55.824Z,100709.73
2018-12-12T17:17:24.378Z,100703.66
2018-12-12T17:19:53.064Z,100710.06
2018-12-12T17:22:21.613Z,100710.47
2018-12-12T17:24:50.272Z,100710.84
2018-12-12T17:27:18.873Z,100712.41
2018-12-12T17:32:29.401Z,100712.77
2018-12-12T17:34:58.024Z,100738.28
2018-12-12T17:37:26.541Z,100706.17
2018-12-12T17:39:55.113Z,100712.97
2018-12-12T17:42:23.661Z,100714.65
2018-12-12T17:44:52.312Z,100709.32
2018-12-12T17:47:20.874Z,100706.33
2018-12-12T17:49:49.414Z,100703.73
2018-12-12T17:52:17.937Z,100705.03
2018-12-12T17:54:46.528Z,100705.52
2018-12-12T17:57:37.156Z,100704.73
2018-12-12T18:00:05.810Z,100697.55
2018-12-12T18:02:34.360Z,100690.79
2018-12-12T18:05:02.867Z,100692.30
2018-12-12T18:07:31.350Z,100692.87
2018-12-12T18:09:59.824Z,100698.65
2018-12-12T18:12:28.658Z,100641.80
2018-12-12T18:14:57.249Z,100686.01
2018-12-12T18:17:25.790Z,100684.84
2018-12-12T18:19:54.257Z,100684.00
2018-12-12T18:22:22.689Z,100688.34
2018-12-12T18:24:51.188Z,100684.89
2018-12-12T18:27:19.612Z,100684.00
2018-12-12T18:29:48.128Z,100696.70
2018-12-12T18:32:16.608Z,100684.66
2018-12-12T18:34:45.026Z,100683.59
2018-12-12T18:37:13.713Z,100685.92
2018-12-12T18:39:42.148Z,100674.41
2018-12-12T18:42:10.610Z,100682.78
2018-12-12T18:44:39.062Z,100681.60
2018-12-12T18:47:07.616Z,100675.13
2018-12-12T18:49:42.118Z,100668.22
2018-12-12T18:52:16.752Z,100666.48
2018-12-12T18:54:45.297Z,100669.06
2018-12-12T18:57:13.800Z,100665.11
2018-12-12T18:59:42.375Z,100667.26
2018-12-12T19:02:10.844Z,100668.16
2018-12-12T19:04:39.425Z,100669.02
2018-12-12T19:07:08.009Z,100668.56
2018-12-12T19:09:36.568Z,100668.95
2018-12-12T19:12:05.174Z,100667.53
2018-12-12T19:14:33.764Z,100668.31
2018-12-12T19:17:02.415Z,100665.27
2018-12-12T19:19:30.872Z,100662.66
2018-12-12T19:21:59.413Z,100663.56
2018-12-12T19:24:27.938Z,100670.05
2018-12-12T19:26:56.491Z,100669.11
2018-12-12T19:29:25.121Z,100670.84
2018-12-12T19:31:53.673Z,100665.09
2018-12-12T19:34:22.136Z,100659.49
2018-12-12T19:36:50.585Z,100665.55
2018-12-12T19:39:19.044Z,100659.61
2018-12-12T19:41:47.475Z,100658.81
2018-12-12T19:44:15.942Z,100656.75
2018-12-12T19:46:44.395Z,100657.25
2018-12-12T19:49:12.859Z,100655.56
2018-12-12T19:51:41.321Z,100658.69
2018-12-12T19:54:09.804Z,100663.14
2018-12-12T19:56:38.277Z,100664.49
2018-12-12T19:59:06.705Z,100660.70
2018-12-12T20:01:35.203Z,100668.19
2018-12-12T20:04:03.635Z,100663.05
2018-12-12T20:06:32.084Z,100669.65
2018-12-12T20:09:00.513Z,100665.81
2018-12-12T20:11:28.926Z,100664.17
2018-12-12T20:13:57.409Z,100668.19
2018-12-12T20:16:25.859Z,100663.50
2018-12-12T20:18:54.276Z,100669.25
2018-12-12T20:21:22.722Z,100672.77
2018-12-12T20:23:51.128Z,100669.82
2018-12-12T20:26:19.508Z,100670.77
2018-12-12T20:28:47.918Z,100663.48
2018-12-12T20:31:16.348Z,100664.84
2018-12-12T20:33:44.756Z,100666.69
2018-12-12T20:36:13.165Z,100659.32
2018-12-12T20:38:41.624Z,100670.23
2018-12-12T20:41:10.027Z,100668.09
2018-12-12T20:43:38.433Z,100665.09
2018-12-12T20:46:06.864Z,100669.50
2018-12-12T20:48:35.255Z,100673.86
2018-12-12T20:51:03.694Z,100673.05
2018-12-12T20:53:32.093Z,100670.56
2018-12-12T20:56:00.542Z,100679.36
2018-12-12T20:58:28.985Z,100678.12
2018-12-12T21:00:57.380Z,100675.08
2018-12-12T21:03:25.793Z,100672.47
2018-12-12T21:05:54.688Z,100674.26
2018-12-12T21:08:23.471Z,100671.17
2018-12-12T21:10:51.927Z,100503.05
2018-12-12T21:13:20.342Z,100670.36
2018-12-12T21:15:48.939Z,100668.16
2018-12-12T21:18:18.523Z,100660.36
2018-12-12T21:20:47.124Z,100665.50
2018-12-12T21:23:15.556Z,100661.66
2018-12-12T21:25:44.374Z,100664.30
2018-12-12T21:28:12.804Z,100663.45
2018-12-12T21:30:41.243Z,100625.77
2018-12-12T21:33:09.667Z,100658.64
2018-12-12T21:35:38.075Z,100652.90
2018-12-12T21:38:06.478Z,100652.05
2018-12-12T21:40:34.853Z,100646.44
2018-12-12T21:43:03.297Z,100641.25
2018-12-12T21:45:31.709Z,100639.38
2018-12-12T21:48:00.143Z,100635.48
2018-12-12T21:50:28.515Z,100634.19
2018-12-12T21:52:56.912Z,100638.08
2018-12-12T21:55:25.407Z,100641.13
2018-12-12T21:57:53.813Z,100642.04
2018-12-12T22:00:22.824Z,100635.58
2018-12-12T22:02:51.238Z,100635.12
2018-12-12T22:05:19.702Z,100626.92
2018-12-12T22:07:48.430Z,100629.07
2018-12-12T22:10:16.894Z,100620.91
2018-12-12T22:12:45.380Z,100623.52
2018-12-12T22:15:13.841Z,100628.81
2018-12-12T22:17:42.317Z,100629.27
2018-12-12T22:20:10.757Z,100618.88
2018-12-12T22:22:39.263Z,100621.06
2018-12-12T22:25:07.740Z,100620.66
2018-12-12T22:27:36.282Z,100617.20
2018-12-12T22:30:05.259Z,100618.50
2018-12-12T22:32:33.721Z,100616.66
2018-12-12T22:35:02.195Z,100620.42
2018-12-12T22:37:30.625Z,100618.02
2018-12-12T22:39:59.067Z,100620.77
2018-12-12T22:42:27.565Z,100619.73
2018-12-12T22:44:56.108Z,100614.31
2018-12-12T22:47:24.605Z,100614.20
2018-12-12T22:49:53.081Z,100618.05
2018-12-12T22:52:21.571Z,100616.75
2018-12-12T22:54:50.020Z,100612.84
2018-12-12T22:57:18.561Z,100611.16
2018-12-12T22:59:47.032Z,100610.30
2018-12-12T23:02:15.517Z,100609.86
2018-12-12T23:04:43.997Z,100608.55
2018-12-12T23:07:12.488Z,100608.15
2018-12-12T23:09:40.964Z,100605.56
2018-12-12T23:12:09.411Z,100606.39
2018-12-12T23:14:37.882Z,100602.55
2018-12-12T23:17:06.273Z,100601.30
2018-12-12T23:19:34.696Z,100603.00
2018-12-12T23:22:03.074Z,100596.85
2018-12-12T23:24:31.489Z,100592.20
2018-12-12T23:26:59.913Z,100593.16
2018-12-12T23:29:28.352Z,100595.31
2018-12-12T23:31:56.752Z,100594.51
2018-12-12T23:34:25.242Z,100586.70
2018-12-12T23:36:53.674Z,100591.52
2018-12-12T23:39:22.101Z,100587.67
2018-12-12T23:41:50.494Z,100582.14
2018-12-12T23:44:18.907Z,100576.14
2018-12-12T23:46:47.365Z,100568.34
2018-12-12T23:49:15.821Z,100569.59
2018-12-12T23:51:44.245Z,100571.44
2018-12-12T23:54:12.697Z,100568.79
2018-12-12T23:56:53.119Z,100566.23
2018-12-12T23:59:21.650Z,100560.03
